sensor_id;sensor_type;location;lat;lon;timestamp;P1;durP1;ratioP1;P2;durP2;ratioP2
21943;SDS011;11136;48.778;9.126;2024-01-11T00:01:48;42.92;;;19.95;;
21943;SDS011;11136;48.778;9.126;2024-01-11T00:04:13;40.03;;;20.75;;
21943;SDS011;11136;48.778;9.126;2024-01-11T00:06:42;38.05;;;20.33;;
21943;SDS011;11136;48.778;9.126;2024-01-11T00:09:08;37.13;;;20.27;;
21943;SDS011;11136;48.778;9.126;2024-01-11T00:11:34;37.25;;;19.20;;
21943;SDS011;11136;48.778;9.126;2024-01-11T00:13:59;37.67;;;18.67;;
21943;SDS011;11136;48.778;9.126;2024-01-11T00:16:24;35.63;;;19.83;;
21943;SDS011;11136;48.778;9.126;2024-01-11T00:18:51;43.33;;;20.38;;
21943;SDS011;11136;48.778;9.126;2024-01-11T00:21:16;40.65;;;20.00;;
21943;SDS011;11136;48.778;9.126;2024-01-11T00:23:41;36.50;;;18.83;;
21943;SDS011;11136;48.778;9.126;2024-01-11T00:26:07;36.25;;;19.70;;
21943;SDS011;11136;48.778;9.126;2024-01-11T00:28:32;43.00;;;21.15;;
21943;SDS011;11136;48.778;9.126;2024-01-11T00:30:57;44.00;;;20.17;;
21943;SDS011;11136;48.778;9.126;2024-01-11T00:33:22;38.25;;;20.10;;
21943;SDS011;11136;48.778;9.126;2024-01-11T00:35:48;42.78;;;20.80;;
21943;SDS011;11136;48.778;9.126;2024-01-11T00:38:13;37.40;;;18.95;;
21943;SDS011;11136;48.778;9.126;2024-01-11T00:40:38;35.35;;;19.92;;
21943;SDS011;11136;48.778;9.126;2024-01-11T00:43:04;41.83;;;20.80;;
21943;SDS011;11136;48.778;9.126;2024-01-11T00:45:30;42.95;;;21.15;;
21943;SDS011;11136;48.778;9.126;2024-01-11T00:47:55;40.75;;;19.95;;
21943;SDS011;11136;48.778;9.126;2024-01-11T00:50:21;38.30;;;20.00;;
21943;SDS011;11136;48.778;9.126;2024-01-11T00:52:46;42.13;;;19.25;;
21943;SDS011;11136;48.778;9.126;2024-01-11T00:55:11;42.30;;;20.52;;
21943;SDS011;11136;48.778;9.126;2024-01-11T00:57:37;36.65;;;19.42;;
21943;SDS011;11136;48.778;9.126;2024-01-11T01:00:02;37.00;;;19.65;;
21943;SDS011;11136;48.778;9.126;2024-01-11T01:02:27;38.90;;;20.10;;
21943;SDS011;11136;48.778;9.126;2024-01-11T01:04:53;33.45;;;19.90;;
21943;SDS011;11136;48.778;9.126;2024-01-11T01:07:18;42.95;;;20.70;;
21943;SDS011;11136;48.778;9.126;2024-01-11T01:09:43;37.33;;;19.90;;
21943;SDS011;11136;48.778;9.126;2024-01-11T01:12:08;36.75;;;20.40;;
21943;SDS011;11136;48.778;9.126;2024-01-11T01:14:34;38.28;;;20.30;;
21943;SDS011;11136;48.778;9.126;2024-01-11T01:16:59;42.45;;;20.88;;
21943;SDS011;11136;48.778;9.126;2024-01-11T01:19:24;38.22;;;19.95;;
21943;SDS011;11136;48.778;9.126;2024-01-11T01:21:50;43.47;;;20.02;;
21943;SDS011;11136;48.778;9.126;2024-01-11T01:24:15;38.25;;;20.40;;
21943;SDS011;11136;48.778;9.126;2024-01-11T01:26:40;41.13;;;20.13;;
21943;SDS011;11136;48.778;9.126;2024-01-11T01:29:06;41.33;;;20.58;;
21943;SDS011;11136;48.778;9.126;2024-01-11T01:31:32;40.70;;;22.20;;
21943;SDS011;11136;48.778;9.126;2024-01-11T01:34:02;39.77;;;21.00;;
21943;SDS011;11136;48.778;9.126;2024-01-11T01:36:28;39.45;;;20.23;;
21943;SDS011;11136;48.778;9.126;2024-01-11T01:38:53;42.65;;;20.33;;
21943;SDS011;11136;48.778;9.126;2024-01-11T01:41:18;46.17;;;20.15;;
21943;SDS011;11136;48.778;9.126;2024-01-11T01:43:45;39.70;;;20.48;;
21943;SDS011;11136;48.778;9.126;2024-01-11T01:46:10;44.65;;;21.77;;
21943;SDS011;11136;48.778;9.126;2024-01-11T01:48:36;41.25;;;20.85;;
21943;SDS011;11136;48.778;9.126;2024-01-11T01:51:03;44.33;;;21.55;;
21943;SDS011;11136;48.778;9.126;2024-01-11T01:53:30;43.75;;;20.60;;
21943;SDS011;11136;48.778;9.126;2024-01-11T01:55:55;38.90;;;20.77;;
21943;SDS011;11136;48.778;9.126;2024-01-11T01:58:21;41.15;;;20.33;;
21943;SDS011;11136;48.778;9.126;2024-01-11T02:00:47;39.42;;;20.67;;
21943;SDS011;11136;48.778;9.126;2024-01-11T02:03:15;44.92;;;22.38;;
21943;SDS011;11136;48.778;9.126;2024-01-11T02:05:41;42.33;;;20.77;;
21943;SDS011;11136;48.778;9.126;2024-01-11T02:08:07;42.00;;;20.92;;
21943;SDS011;11136;48.778;9.126;2024-01-11T02:10:37;44.25;;;21.95;;
21943;SDS011;11136;48.778;9.126;2024-01-11T02:13:02;43.13;;;20.10;;
21943;SDS011;11136;48.778;9.126;2024-01-11T02:15:28;37.05;;;19.80;;
21943;SDS011;11136;48.778;9.126;2024-01-11T02:17:53;41.78;;;20.15;;
21943;SDS011;11136;48.778;9.126;2024-01-11T02:20:19;36.85;;;21.05;;
21943;SDS011;11136;48.778;9.126;2024-01-11T02:22:46;43.22;;;20.67;;
21943;SDS011;11136;48.778;9.126;2024-01-11T02:25:15;44.88;;;20.75;;
21943;SDS011;11136;48.778;9.126;2024-01-11T02:27:49;43.13;;;20.50;;
21943;SDS011;11136;48.778;9.126;2024-01-11T02:30:15;38.92;;;20.77;;
21943;SDS011;11136;48.778;9.126;2024-01-11T02:32:48;38.30;;;20.33;;
21943;SDS011;11136;48.778;9.126;2024-01-11T02:35:15;44.72;;;21.40;;
21943;SDS011;11136;48.778;9.126;2024-01-11T02:37:41;41.95;;;20.80;;
21943;SDS011;11136;48.778;9.126;2024-01-11T02:40:07;39.03;;;20.42;;
21943;SDS011;11136;48.778;9.126;2024-01-11T02:42:33;40.58;;;20.85;;
21943;SDS011;11136;48.778;9.126;2024-01-11T02:44:59;37.95;;;20.30;;
21943;SDS011;11136;48.778;9.126;2024-01-11T02:47:24;55.83;;;21.92;;
21943;SDS011;11136;48.778;9.126;2024-01-11T02:49:49;40.35;;;20.83;;
21943;SDS011;11136;48.778;9.126;2024-01-11T02:52:15;40.20;;;19.60;;
21943;SDS011;11136;48.778;9.126;2024-01-11T02:54:40;45.90;;;22.23;;
21943;SDS011;11136;48.778;9.126;2024-01-11T02:57:05;46.45;;;23.15;;
21943;SDS011;11136;48.778;9.126;2024-01-11T02:59:31;39.22;;;21.88;;
21943;SDS011;11136;48.778;9.126;2024-01-11T03:01:56;39.58;;;21.48;;
21943;SDS011;11136;48.778;9.126;2024-01-11T03:04:21;46.45;;;22.67;;
21943;SDS011;11136;48.778;9.126;2024-01-11T03:06:47;40.20;;;22.67;;
21943;SDS011;11136;48.778;9.126;2024-01-11T03:09:12;40.40;;;20.85;;
21943;SDS011;11136;48.778;9.126;2024-01-11T03:11:37;41.85;;;21.67;;
21943;SDS011;11136;48.778;9.126;2024-01-11T03:14:03;39.08;;;19.90;;
21943;SDS011;11136;48.778;9.126;2024-01-11T03:16:28;41.75;;;20.17;;
21943;SDS011;11136;48.778;9.126;2024-01-11T03:18:54;42.55;;;20.90;;
21943;SDS011;11136;48.778;9.126;2024-01-11T03:21:22;44.22;;;20.67;;
21943;SDS011;11136;48.778;9.126;2024-01-11T03:23:47;37.85;;;20.20;;
21943;SDS011;11136;48.778;9.126;2024-01-11T03:26:21;46.50;;;20.63;;
21943;SDS011;11136;48.778;9.126;2024-01-11T03:28:46;40.85;;;19.85;;
21943;SDS011;11136;48.778;9.126;2024-01-11T03:31:11;37.95;;;19.33;;
21943;SDS011;11136;48.778;9.126;2024-01-11T03:33:37;43.95;;;20.08;;
21943;SDS011;11136;48.778;9.126;2024-01-11T03:36:08;41.17;;;19.73;;
21943;SDS011;11136;48.778;9.126;2024-01-11T03:38:37;38.70;;;19.20;;
21943;SDS011;11136;48.778;9.126;2024-01-11T03:41:07;40.75;;;20.30;;
21943;SDS011;11136;48.778;9.126;2024-01-11T03:43:33;40.83;;;20.97;;
21943;SDS011;11136;48.778;9.126;2024-01-11T03:45:58;43.88;;;20.88;;
21943;SDS011;11136;48.778;9.126;2024-01-11T03:48:24;39.63;;;21.38;;
21943;SDS011;11136;48.778;9.126;2024-01-11T03:50:49;41.63;;;22.15;;
21943;SDS011;11136;48.778;9.126;2024-01-11T03:53:14;40.42;;;21.40;;
21943;SDS011;11136;48.778;9.126;2024-01-11T03:55:39;43.22;;;22.30;;
21943;SDS011;11136;48.778;9.126;2024-01-11T03:58:05;39.95;;;21.77;;
21943;SDS011;11136;48.778;9.126;2024-01-11T04:00:30;41.45;;;20.42;;
21943;SDS011;11136;48.778;9.126;2024-01-11T04:02:55;47.05;;;21.83;;
21943;SDS011;11136;48.778;9.126;2024-01-11T04:05:20;42.65;;;22.65;;
21943;SDS011;11136;48.778;9.126;2024-01-11T04:07:46;39.45;;;21.02;;
21943;SDS011;11136;48.778;9.126;2024-01-11T04:10:11;45.67;;;21.15;;
21943;SDS011;11136;48.778;9.126;2024-01-11T04:12:36;42.22;;;20.88;;
21943;SDS011;11136;48.778;9.126;2024-01-11T04:15:02;37.42;;;21.33;;
21943;SDS011;11136;48.778;9.126;2024-01-11T04:17:28;42.30;;;20.67;;
21943;SDS011;11136;48.778;9.126;2024-01-11T04:19:53;47.53;;;22.48;;
21943;SDS011;11136;48.778;9.126;2024-01-11T04:22:18;40.70;;;21.02;;
21943;SDS011;11136;48.778;9.126;2024-01-11T04:24:44;44.03;;;22.40;;
21943;SDS011;11136;48.778;9.126;2024-01-11T04:27:09;44.17;;;20.25;;
21943;SDS011;11136;48.778;9.126;2024-01-11T04:29:35;38.22;;;21.00;;
21943;SDS011;11136;48.778;9.126;2024-01-11T04:32:00;44.22;;;20.45;;
21943;SDS011;11136;48.778;9.126;2024-01-11T04:34:26;39.72;;;20.48;;
21943;SDS011;11136;48.778;9.126;2024-01-11T04:36:52;37.72;;;20.65;;
21943;SDS011;11136;48.778;9.126;2024-01-11T04:39:17;45.58;;;21.92;;
21943;SDS011;11136;48.778;9.126;2024-01-11T04:41:42;35.58;;;20.35;;
21943;SDS011;11136;48.778;9.126;2024-01-11T04:44:07;40.63;;;21.45;;
21943;SDS011;11136;48.778;9.126;2024-01-11T04:46:33;35.50;;;19.73;;
21943;SDS011;11136;48.778;9.126;2024-01-11T04:48:58;44.40;;;23.13;;
21943;SDS011;11136;48.778;9.126;2024-01-11T04:51:23;43.72;;;21.17;;
21943;SDS011;11136;48.778;9.126;2024-01-11T04:53:48;42.90;;;22.33;;
21943;SDS011;11136;48.778;9.126;2024-01-11T04:56:14;40.00;;;21.73;;
21943;SDS011;11136;48.778;9.126;2024-01-11T04:58:42;42.42;;;22.77;;
21943;SDS011;11136;48.778;9.126;2024-01-11T05:01:11;47.15;;;21.60;;
21943;SDS011;11136;48.778;9.126;2024-01-11T05:03:40;44.17;;;22.10;;
21943;SDS011;11136;48.778;9.126;2024-01-11T05:06:06;42.30;;;21.63;;
21943;SDS011;11136;48.778;9.126;2024-01-11T05:08:31;45.60;;;23.30;;
21943;SDS011;11136;48.778;9.126;2024-01-11T05:10:57;49.13;;;23.10;;
21943;SDS011;11136;48.778;9.126;2024-01-11T05:13:22;45.60;;;21.73;;
21943;SDS011;11136;48.778;9.126;2024-01-11T05:15:48;41.88;;;21.77;;
21943;SDS011;11136;48.778;9.126;2024-01-11T05:18:13;42.08;;;20.33;;
21943;SDS011;11136;48.778;9.126;2024-01-11T05:20:39;45.67;;;21.70;;
21943;SDS011;11136;48.778;9.126;2024-01-11T05:23:04;43.95;;;21.73;;
21943;SDS011;11136;48.778;9.126;2024-01-11T05:25:30;39.65;;;20.10;;
21943;SDS011;11136;48.778;9.126;2024-01-11T05:28:01;41.88;;;20.88;;
21943;SDS011;11136;48.778;9.126;2024-01-11T05:30:28;46.17;;;22.05;;
21943;SDS011;11136;48.778;9.126;2024-01-11T05:32:54;45.10;;;21.77;;
21943;SDS011;11136;48.778;9.126;2024-01-11T05:35:19;41.95;;;21.50;;
21943;SDS011;11136;48.778;9.126;2024-01-11T05:37:45;45.78;;;23.95;;
21943;SDS011;11136;48.778;9.126;2024-01-11T05:40:10;41.50;;;21.35;;
21943;SDS011;11136;48.778;9.126;2024-01-11T05:42:36;42.60;;;21.38;;
21943;SDS011;11136;48.778;9.126;2024-01-11T05:45:03;42.95;;;20.88;;
21943;SDS011;11136;48.778;9.126;2024-01-11T05:47:29;41.95;;;21.58;;
21943;SDS011;11136;48.778;9.126;2024-01-11T05:49:55;43.30;;;22.02;;
21943;SDS011;11136;48.778;9.126;2024-01-11T05:52:20;41.63;;;21.38;;
21943;SDS011;11136;48.778;9.126;2024-01-11T05:54:45;41.45;;;21.13;;
21943;SDS011;11136;48.778;9.126;2024-01-11T05:57:12;43.47;;;21.45;;
21943;SDS011;11136;48.778;9.126;2024-01-11T05:59:37;42.70;;;20.80;;
21943;SDS011;11136;48.778;9.126;2024-01-11T06:02:02;41.08;;;21.10;;
21943;SDS011;11136;48.778;9.126;2024-01-11T06:04:28;44.05;;;21.60;;
21943;SDS011;11136;48.778;9.126;2024-01-11T06:06:53;44.13;;;21.50;;
21943;SDS011;11136;48.778;9.126;2024-01-11T06:09:18;39.25;;;20.23;;
21943;SDS011;11136;48.778;9.126;2024-01-11T06:11:44;43.33;;;20.70;;
21943;SDS011;11136;48.778;9.126;2024-01-11T06:14:09;41.67;;;20.58;;
21943;SDS011;11136;48.778;9.126;2024-01-11T06:16:34;43.05;;;21.30;;
21943;SDS011;11136;48.778;9.126;2024-01-11T06:19:00;37.00;;;19.67;;
21943;SDS011;11136;48.778;9.126;2024-01-11T06:21:25;44.75;;;21.67;;
21943;SDS011;11136;48.778;9.126;2024-01-11T06:23:50;42.88;;;21.45;;
21943;SDS011;11136;48.778;9.126;2024-01-11T06:26:16;42.08;;;21.45;;
21943;SDS011;11136;48.778;9.126;2024-01-11T06:28:41;41.40;;;20.40;;
21943;SDS011;11136;48.778;9.126;2024-01-11T06:31:06;42.67;;;21.40;;
21943;SDS011;11136;48.778;9.126;2024-01-11T06:33:34;44.95;;;21.15;;
21943;SDS011;11136;48.778;9.126;2024-01-11T06:36:02;40.65;;;20.35;;
21943;SDS011;11136;48.778;9.126;2024-01-11T06:38:29;39.42;;;20.10;;
21943;SDS011;11136;48.778;9.126;2024-01-11T06:40:54;44.30;;;21.27;;
21943;SDS011;11136;48.778;9.126;2024-01-11T06:43:20;44.10;;;21.42;;
21943;SDS011;11136;48.778;9.126;2024-01-11T06:45:45;49.72;;;23.02;;
21943;SDS011;11136;48.778;9.126;2024-01-11T06:48:10;48.83;;;23.67;;
21943;SDS011;11136;48.778;9.126;2024-01-11T06:50:35;48.28;;;23.33;;
21943;SDS011;11136;48.778;9.126;2024-01-11T06:53:01;47.50;;;23.40;;
21943;SDS011;11136;48.778;9.126;2024-01-11T06:55:26;47.20;;;22.30;;
21943;SDS011;11136;48.778;9.126;2024-01-11T06:57:52;46.22;;;22.45;;
21943;SDS011;11136;48.778;9.126;2024-01-11T07:00:17;44.70;;;23.13;;
21943;SDS011;11136;48.778;9.126;2024-01-11T07:02:43;47.28;;;22.63;;
21943;SDS011;11136;48.778;9.126;2024-01-11T07:05:08;41.47;;;22.10;;
21943;SDS011;11136;48.778;9.126;2024-01-11T07:07:33;42.72;;;22.35;;
21943;SDS011;11136;48.778;9.126;2024-01-11T07:09:58;45.55;;;22.05;;
21943;SDS011;11136;48.778;9.126;2024-01-11T07:12:24;45.25;;;22.75;;
21943;SDS011;11136;48.778;9.126;2024-01-11T07:14:50;42.13;;;21.58;;
21943;SDS011;11136;48.778;9.126;2024-01-11T07:17:16;45.63;;;22.67;;
21943;SDS011;11136;48.778;9.126;2024-01-11T07:19:42;47.90;;;23.60;;
21943;SDS011;11136;48.778;9.126;2024-01-11T07:22:07;47.00;;;22.40;;
21943;SDS011;11136;48.778;9.126;2024-01-11T07:24:32;49.85;;;23.58;;
21943;SDS011;11136;48.778;9.126;2024-01-11T07:27:02;52.00;;;23.20;;
21943;SDS011;11136;48.778;9.126;2024-01-11T07:29:31;44.08;;;21.92;;
21943;SDS011;11136;48.778;9.126;2024-01-11T07:31:57;49.55;;;22.63;;
21943;SDS011;11136;48.778;9.126;2024-01-11T07:34:23;42.03;;;22.15;;
21943;SDS011;11136;48.778;9.126;2024-01-11T07:36:49;46.10;;;22.73;;
21943;SDS011;11136;48.778;9.126;2024-01-11T07:39:14;43.08;;;21.60;;
21943;SDS011;11136;48.778;9.126;2024-01-11T07:41:40;42.00;;;21.40;;
21943;SDS011;11136;48.778;9.126;2024-01-11T07:44:05;37.90;;;21.25;;
21943;SDS011;11136;48.778;9.126;2024-01-11T07:46:31;41.63;;;22.50;;
21943;SDS011;11136;48.778;9.126;2024-01-11T07:48:56;47.47;;;23.83;;
21943;SDS011;11136;48.778;9.126;2024-01-11T07:51:21;46.88;;;21.77;;
21943;SDS011;11136;48.778;9.126;2024-01-11T07:53:47;46.30;;;23.40;;
21943;SDS011;11136;48.778;9.126;2024-01-11T07:56:12;44.90;;;23.10;;
21943;SDS011;11136;48.778;9.126;2024-01-11T07:58:38;43.95;;;22.95;;
21943;SDS011;11136;48.778;9.126;2024-01-11T08:01:09;41.28;;;21.70;;
21943;SDS011;11136;48.778;9.126;2024-01-11T08:03:34;46.53;;;22.55;;
21943;SDS011;11136;48.778;9.126;2024-01-11T08:06:00;44.17;;;22.88;;
21943;SDS011;11136;48.778;9.126;2024-01-11T08:08:26;40.85;;;21.20;;
21943;SDS011;11136;48.778;9.126;2024-01-11T08:10:51;49.72;;;23.75;;
21943;SDS011;11136;48.778;9.126;2024-01-11T08:13:17;49.67;;;23.33;;
21943;SDS011;11136;48.778;9.126;2024-01-11T08:15:42;48.53;;;22.50;;
21943;SDS011;11136;48.778;9.126;2024-01-11T08:18:08;44.90;;;23.35;;
21943;SDS011;11136;48.778;9.126;2024-01-11T08:20:33;52.20;;;24.45;;
21943;SDS011;11136;48.778;9.126;2024-01-11T08:22:59;54.22;;;25.42;;
21943;SDS011;11136;48.778;9.126;2024-01-11T08:25:24;51.65;;;25.17;;
21943;SDS011;11136;48.778;9.126;2024-01-11T08:27:49;45.60;;;23.83;;
21943;SDS011;11136;48.778;9.126;2024-01-11T08:30:15;53.00;;;23.40;;
21943;SDS011;11136;48.778;9.126;2024-01-11T08:32:40;41.97;;;21.75;;
21943;SDS011;11136;48.778;9.126;2024-01-11T08:35:08;44.42;;;23.08;;
21943;SDS011;11136;48.778;9.126;2024-01-11T08:37:34;51.50;;;24.35;;
21943;SDS011;11136;48.778;9.126;2024-01-11T08:40:00;47.33;;;22.75;;
21943;SDS011;11136;48.778;9.126;2024-01-11T08:42:25;50.60;;;23.08;;
21943;SDS011;11136;48.778;9.126;2024-01-11T08:44:51;43.97;;;23.45;;
21943;SDS011;11136;48.778;9.126;2024-01-11T08:47:17;46.50;;;23.73;;
21943;SDS011;11136;48.778;9.126;2024-01-11T08:49:42;47.00;;;22.63;;
21943;SDS011;11136;48.778;9.126;2024-01-11T08:52:08;45.83;;;23.10;;
21943;SDS011;11136;48.778;9.126;2024-01-11T08:54:33;49.22;;;24.50;;
21943;SDS011;11136;48.778;9.126;2024-01-11T08:56:59;46.25;;;24.02;;
21943;SDS011;11136;48.778;9.126;2024-01-11T08:59:25;49.17;;;25.63;;
21943;SDS011;11136;48.778;9.126;2024-01-11T09:01:54;47.08;;;25.15;;
21943;SDS011;11136;48.778;9.126;2024-01-11T09:04:19;43.10;;;24.25;;
21943;SDS011;11136;48.778;9.126;2024-01-11T09:06:44;52.38;;;26.58;;
21943;SDS011;11136;48.778;9.126;2024-01-11T09:09:10;47.45;;;23.10;;
21943;SDS011;11136;48.778;9.126;2024-01-11T09:11:38;46.53;;;23.33;;
21943;SDS011;11136;48.778;9.126;2024-01-11T09:14:06;62.42;;;24.92;;
21943;SDS011;11136;48.778;9.126;2024-01-11T09:16:32;45.17;;;24.45;;
21943;SDS011;11136;48.778;9.126;2024-01-11T09:18:58;49.17;;;24.17;;
21943;SDS011;11136;48.778;9.126;2024-01-11T09:21:25;50.22;;;25.13;;
21943;SDS011;11136;48.778;9.126;2024-01-11T09:23:51;47.47;;;25.02;;
21943;SDS011;11136;48.778;9.126;2024-01-11T09:26:16;44.05;;;23.38;;
21943;SDS011;11136;48.778;9.126;2024-01-11T09:28:42;50.85;;;24.42;;
21943;SDS011;11136;48.778;9.126;2024-01-11T09:31:07;51.63;;;23.65;;
21943;SDS011;11136;48.778;9.126;2024-01-11T09:33:32;43.67;;;22.88;;
21943;SDS011;11136;48.778;9.126;2024-01-11T09:35:57;41.42;;;22.60;;
21943;SDS011;11136;48.778;9.126;2024-01-11T09:38:23;48.55;;;24.60;;
21943;SDS011;11136;48.778;9.126;2024-01-11T09:40:49;40.63;;;23.15;;
21943;SDS011;11136;48.778;9.126;2024-01-11T09:43:29;52.50;;;24.80;;
21943;SDS011;11136;48.778;9.126;2024-01-11T09:45:56;43.45;;;23.98;;
21943;SDS011;11136;48.778;9.126;2024-01-11T09:48:22;46.70;;;23.88;;
21943;SDS011;11136;48.778;9.126;2024-01-11T09:50:49;43.58;;;23.33;;
21943;SDS011;11136;48.778;9.126;2024-01-11T09:53:17;48.25;;;24.92;;
21943;SDS011;11136;48.778;9.126;2024-01-11T09:55:45;38.67;;;22.35;;
21943;SDS011;11136;48.778;9.126;2024-01-11T09:58:11;47.22;;;23.75;;
21943;SDS011;11136;48.778;9.126;2024-01-11T10:00:37;45.95;;;25.15;;
21943;SDS011;11136;48.778;9.126;2024-01-11T10:03:02;42.75;;;22.73;;
21943;SDS011;11136;48.778;9.126;2024-01-11T10:05:28;40.85;;;23.75;;
21943;SDS011;11136;48.778;9.126;2024-01-11T10:07:54;46.88;;;25.10;;
21943;SDS011;11136;48.778;9.126;2024-01-11T10:10:19;44.63;;;24.88;;
21943;SDS011;11136;48.778;9.126;2024-01-11T10:12:45;41.22;;;23.23;;
21943;SDS011;11136;48.778;9.126;2024-01-11T10:15:12;47.55;;;25.10;;
21943;SDS011;11136;48.778;9.126;2024-01-11T10:17:42;46.05;;;25.17;;
21943;SDS011;11136;48.778;9.126;2024-01-11T10:20:14;43.72;;;23.27;;
21943;SDS011;11136;48.778;9.126;2024-01-11T10:22:40;45.28;;;23.95;;
21943;SDS011;11136;48.778;9.126;2024-01-11T10:27:42;44.20;;;23.48;;
21943;SDS011;11136;48.778;9.126;2024-01-11T10:30:09;46.40;;;24.85;;
21943;SDS011;11136;48.778;9.126;2024-01-11T10:32:38;49.58;;;25.65;;
21943;SDS011;11136;48.778;9.126;2024-01-11T10:35:07;44.97;;;25.23;;
21943;SDS011;11136;48.778;9.126;2024-01-11T10:37:33;50.72;;;25.67;;
21943;SDS011;11136;48.778;9.126;2024-01-11T10:39:58;45.45;;;24.73;;
21943;SDS011;11136;48.778;9.126;2024-01-11T10:42:30;43.95;;;23.77;;
21943;SDS011;11136;48.778;9.126;2024-01-11T10:44:56;46.72;;;25.05;;
21943;SDS011;11136;48.778;9.126;2024-01-11T10:47:27;44.00;;;23.83;;
21943;SDS011;11136;48.778;9.126;2024-01-11T10:49:55;46.70;;;25.55;;
21943;SDS011;11136;48.778;9.126;2024-01-11T10:52:22;45.35;;;24.73;;
21943;SDS011;11136;48.778;9.126;2024-01-11T10:54:52;44.83;;;23.52;;
21943;SDS011;11136;48.778;9.126;2024-01-11T10:57:18;46.17;;;25.33;;
21943;SDS011;11136;48.778;9.126;2024-01-11T10:59:44;52.58;;;26.08;;
21943;SDS011;11136;48.778;9.126;2024-01-11T11:02:10;48.10;;;26.02;;
21943;SDS011;11136;48.778;9.126;2024-01-11T11:04:39;45.65;;;26.33;;
21943;SDS011;11136;48.778;9.126;2024-01-11T11:07:05;45.17;;;26.27;;
21943;SDS011;11136;48.778;9.126;2024-01-11T11:09:34;45.65;;;25.27;;
21943;SDS011;11136;48.778;9.126;2024-01-11T11:12:00;47.55;;;26.08;;
21943;SDS011;11136;48.778;9.126;2024-01-11T11:14:26;45.45;;;25.08;;
21943;SDS011;11136;48.778;9.126;2024-01-11T11:16:53;52.08;;;27.85;;
21943;SDS011;11136;48.778;9.126;2024-01-11T11:19:19;43.63;;;23.67;;
21943;SDS011;11136;48.778;9.126;2024-01-11T11:21:46;47.60;;;25.30;;
21943;SDS011;11136;48.778;9.126;2024-01-11T11:24:13;46.05;;;25.88;;
21943;SDS011;11136;48.778;9.126;2024-01-11T11:26:39;43.75;;;24.48;;
21943;SDS011;11136;48.778;9.126;2024-01-11T11:29:04;43.95;;;25.60;;
21943;SDS011;11136;48.778;9.126;2024-01-11T11:31:34;45.88;;;25.13;;
21943;SDS011;11136;48.778;9.126;2024-01-11T11:34:04;46.13;;;26.58;;
21943;SDS011;11136;48.778;9.126;2024-01-11T11:36:30;49.15;;;26.83;;
21943;SDS011;11136;48.778;9.126;2024-01-11T11:38:56;52.85;;;28.15;;
21943;SDS011;11136;48.778;9.126;2024-01-11T11:41:25;47.15;;;24.05;;
21943;SDS011;11136;48.778;9.126;2024-01-11T11:43:51;48.00;;;27.95;;
21943;SDS011;11136;48.778;9.126;2024-01-11T11:46:16;41.70;;;24.42;;
21943;SDS011;11136;48.778;9.126;2024-01-11T11:48:48;45.42;;;25.35;;
21943;SDS011;11136;48.778;9.126;2024-01-11T11:51:19;50.05;;;26.13;;
21943;SDS011;11136;48.778;9.126;2024-01-11T11:53:45;44.60;;;24.85;;
21943;SDS011;11136;48.778;9.126;2024-01-11T11:56:12;49.10;;;27.40;;
21943;SDS011;11136;48.778;9.126;2024-01-11T11:58:40;47.38;;;26.30;;
21943;SDS011;11136;48.778;9.126;2024-01-11T12:01:06;46.72;;;26.35;;
21943;SDS011;11136;48.778;9.126;2024-01-11T12:03:32;45.65;;;24.63;;
21943;SDS011;11136;48.778;9.126;2024-01-11T12:06:02;46.30;;;26.33;;
21943;SDS011;11136;48.778;9.126;2024-01-11T12:08:31;46.20;;;25.55;;
21943;SDS011;11136;48.778;9.126;2024-01-11T12:10:57;48.25;;;26.67;;
21943;SDS011;11136;48.778;9.126;2024-01-11T12:13:23;50.25;;;26.98;;
21943;SDS011;11136;48.778;9.126;2024-01-11T12:15:49;47.22;;;26.35;;
21943;SDS011;11136;48.778;9.126;2024-01-11T12:18:18;46.28;;;27.25;;
21943;SDS011;11136;48.778;9.126;2024-01-11T12:20:43;42.50;;;25.15;;
21943;SDS011;11136;48.778;9.126;2024-01-11T12:23:09;44.15;;;25.75;;
21943;SDS011;11136;48.778;9.126;2024-01-11T12:25:35;50.08;;;27.67;;
21943;SDS011;11136;48.778;9.126;2024-01-11T12:28:01;42.65;;;24.52;;
21943;SDS011;11136;48.778;9.126;2024-01-11T12:30:26;53.58;;;26.02;;
21943;SDS011;11136;48.778;9.126;2024-01-11T12:32:53;46.65;;;25.83;;
21943;SDS011;11136;48.778;9.126;2024-01-11T12:35:20;46.33;;;25.83;;
21943;SDS011;11136;48.778;9.126;2024-01-11T12:37:52;47.63;;;26.48;;
21943;SDS011;11136;48.778;9.126;2024-01-11T12:40:24;44.20;;;25.60;;
21943;SDS011;11136;48.778;9.126;2024-01-11T12:42:52;43.88;;;25.20;;
21943;SDS011;11136;48.778;9.126;2024-01-11T12:45:17;51.22;;;26.10;;
21943;SDS011;11136;48.778;9.126;2024-01-11T12:47:43;46.53;;;26.13;;
21943;SDS011;11136;48.778;9.126;2024-01-11T12:50:09;43.38;;;24.35;;
21943;SDS011;11136;48.778;9.126;2024-01-11T12:52:34;43.60;;;24.60;;
21943;SDS011;11136;48.778;9.126;2024-01-11T12:55:00;48.78;;;26.42;;
21943;SDS011;11136;48.778;9.126;2024-01-11T12:57:25;43.45;;;25.88;;
21943;SDS011;11136;48.778;9.126;2024-01-11T12:59:51;45.70;;;26.85;;
21943;SDS011;11136;48.778;9.126;2024-01-11T13:02:17;47.60;;;26.15;;
21943;SDS011;11136;48.778;9.126;2024-01-11T13:04:43;43.08;;;25.17;;
21943;SDS011;11136;48.778;9.126;2024-01-11T13:07:10;46.22;;;24.98;;
21943;SDS011;11136;48.778;9.126;2024-01-11T13:09:36;49.80;;;26.45;;
21943;SDS011;11136;48.778;9.126;2024-01-11T13:12:01;47.03;;;25.85;;
21943;SDS011;11136;48.778;9.126;2024-01-11T13:14:28;48.25;;;27.05;;
21943;SDS011;11136;48.778;9.126;2024-01-11T13:16:53;52.53;;;27.88;;
21943;SDS011;11136;48.778;9.126;2024-01-11T13:19:19;47.28;;;26.63;;
21943;SDS011;11136;48.778;9.126;2024-01-11T13:21:44;51.80;;;26.05;;
21943;SDS011;11136;48.778;9.126;2024-01-11T13:24:09;47.28;;;25.42;;
21943;SDS011;11136;48.778;9.126;2024-01-11T13:26:35;47.95;;;25.35;;
21943;SDS011;11136;48.778;9.126;2024-01-11T13:29:01;44.00;;;25.85;;
21943;SDS011;11136;48.778;9.126;2024-01-11T13:31:27;43.72;;;25.52;;
21943;SDS011;11136;48.778;9.126;2024-01-11T13:33:53;44.92;;;26.77;;
21943;SDS011;11136;48.778;9.126;2024-01-11T13:36:20;43.17;;;24.55;;
21943;SDS011;11136;48.778;9.126;2024-01-11T13:38:45;43.30;;;24.50;;
21943;SDS011;11136;48.778;9.126;2024-01-11T13:41:10;42.28;;;24.25;;
21943;SDS011;11136;48.778;9.126;2024-01-11T13:43:36;44.67;;;23.55;;
21943;SDS011;11136;48.778;9.126;2024-01-11T13:46:01;45.15;;;25.30;;
21943;SDS011;11136;48.778;9.126;2024-01-11T13:48:29;49.97;;;26.45;;
21943;SDS011;11136;48.778;9.126;2024-01-11T13:50:56;44.42;;;25.52;;
21943;SDS011;11136;48.778;9.126;2024-01-11T13:53:22;49.00;;;26.05;;
21943;SDS011;11136;48.778;9.126;2024-01-11T13:55:47;43.05;;;25.33;;
21943;SDS011;11136;48.778;9.126;2024-01-11T13:58:13;48.10;;;25.67;;
21943;SDS011;11136;48.778;9.126;2024-01-11T14:00:38;46.15;;;27.85;;
21943;SDS011;11136;48.778;9.126;2024-01-11T14:03:04;44.85;;;26.77;;
21943;SDS011;11136;48.778;9.126;2024-01-11T14:05:30;43.92;;;25.88;;
21943;SDS011;11136;48.778;9.126;2024-01-11T14:07:55;52.47;;;28.13;;
21943;SDS011;11136;48.778;9.126;2024-01-11T14:10:24;48.72;;;27.60;;
21943;SDS011;11136;48.778;9.126;2024-01-11T14:12:49;43.97;;;25.85;;
21943;SDS011;11136;48.778;9.126;2024-01-11T14:15:15;47.20;;;26.38;;
21943;SDS011;11136;48.778;9.126;2024-01-11T14:17:41;45.42;;;26.52;;